Freetown, Kentucky
Current Conditions -  °F | °C
As of 3:35 PM on Friday 24 Oct 2014 (Local Time) from KGLW Reporting Station
Clear Clear  
Wind Chill: 68°   Ceiling: Unl
Heat Index: 68°   Visibility: 10mi
Dew Point: 43°   Wind: 3mph
Humidity: 40%   Direction: 270°W
Pressure: 30.05"   Gusts: NA
Location:  36.6549°N, 85.8315°W
Report Text: KGLW 242035Z AUTO 27003KT 10SM CLR 20/06 A3005 RMK AO2 T02010061
Loading
Personal Weather Stations






























Interactive Weather Map New forecast layout! Learn more

10-Day Weather Forecast

Advertisements
Track Severe Weather on mobile